Owensboro, KY

9:18 PM CDT on August 21, 2014 (GMT -0500)
Evansville Regional | Change Station
CLOSE
Current Station
Airport
Location: Evansville,
Elevation: 387 ft
Nearby Weather Stations
Active Advisory: Heat Advisory

Elev 387 ft 38.04 °N, 87.52 °W | Updated 24 minutes ago

Clear
Clear
83 °F
Feels Like 88 °F
N
6
Wind Variable Wind from SW

Today
High -- | Low -- °F
--% Chance of Precip.
Yesterday
High -- | Low -- °F
Precip. -- in
6:09 AM 7:33 PM
Waning Crescent, 11% visible
Pressure 29.98 in
Visibility 10.0 miles
Clouds Clear
Heat Index 88 °F
Dew Point 71 °F
Humidity 67%
Rainfall 0.02 in
Snow Depth Not available.
UV 0 out of 12
Pollen 9.80 out of 12
Air Quality Not available.
Flu Activity Not available.
METAR KEVV 220154Z 22005KT 10SM CLR 28/22 A2999 RMK AO2 SLP151 T02830217

More Conditions Fewer Conditions

Pressure 29.98 in
Visibility 10.0 miles
Clouds Clear
Heat Index 88 °F
Dew Point 71 °F
Humidity 67%
Rainfall 0.02 in
Snow Depth Not available.
UV 0 out of 12
Pollen 9.80 out of 12
Air Quality Not available.
Flu Activity Not available.
METAR KEVV 220154Z 22005KT 10SM CLR 28/22 A2999 RMK AO2 SLP151 T02830217

More Conditions Fewer Conditions

10-Day Weather Forecast

Almanac

Astronomy

Aug. 21, 2014 Rise Set
Actual Time 6:09 AM CDT 7:33 PM CDT
Civil Twilight 5:42 AM CDT 8:01 PM CDT
Nautical Twilight 5:09 AM CDT 8:34 PM CDT
Astronomical Twilight 4:34 AM CDT 9:08 PM CDT
Moon 2:41 AM CDT (8/21) 5:00 PM CDT (8/21)
Length of Visible Light 14h 19m
Length of Day
13h 24m
Tomorrow will be 2m 14s shorter.
Waning Crescent, 11% of the Moon is Illuminated
Today
Waning Crescent
Aug 25
New
Sep 2
First Quarter
Sep 8
Full
Sep 15
Last Quarter

Today's Extremes

State Highs State Lows

Community

WunderPhotos

Upload Photos

1,746,106 photos uploaded!

WunderBlogs® & News

Nearby

Snow Depth

Station Depth Elevation
No new snow has been reported.

Earthquake Activity

City Distance Mag. Time & Date
No recent earthquake activity has been reported nearby.
Minimum magnitude displayed is 2.5.

Coastal Water Temperatures

Place Temperature
No Stations Reporting

Nearby Weather Stations